sensor_id;sensor_type;location;lat;lon;timestamp;temperature;humidity
30999;DHT22;20549;50.042;8.968;2023-06-04T00:01:49;17.20;42.90
30999;DHT22;20549;50.042;8.968;2023-06-04T00:04:16;17.20;43.10
30999;DHT22;20549;50.042;8.968;2023-06-04T00:06:42;17.10;43.30
30999;DHT22;20549;50.042;8.968;2023-06-04T00:09:09;17.00;43.40
30999;DHT22;20549;50.042;8.968;2023-06-04T00:11:36;16.90;43.60
30999;DHT22;20549;50.042;8.968;2023-06-04T00:14:02;16.80;43.80
30999;DHT22;20549;50.042;8.968;2023-06-04T00:16:29;16.70;43.90
30999;DHT22;20549;50.042;8.968;2023-06-04T00:18:55;16.60;44.00
30999;DHT22;20549;50.042;8.968;2023-06-04T00:21:22;16.60;44.20
30999;DHT22;20549;50.042;8.968;2023-06-04T00:23:49;16.50;44.30
30999;DHT22;20549;50.042;8.968;2023-06-04T00:26:15;16.40;44.40
30999;DHT22;20549;50.042;8.968;2023-06-04T00:28:42;16.40;44.50
30999;DHT22;20549;50.042;8.968;2023-06-04T00:31:08;16.30;44.60
30999;DHT22;20549;50.042;8.968;2023-06-04T00:33:35;16.20;44.70
30999;DHT22;20549;50.042;8.968;2023-06-04T00:36:01;16.20;44.80
30999;DHT22;20549;50.042;8.968;2023-06-04T00:38:28;16.10;44.90
30999;DHT22;20549;50.042;8.968;2023-06-04T00:40:55;16.10;45.00
30999;DHT22;20549;50.042;8.968;2023-06-04T00:43:21;16.00;45.20
30999;DHT22;20549;50.042;8.968;2023-06-04T00:45:48;16.00;45.20
30999;DHT22;20549;50.042;8.968;2023-06-04T00:48:14;15.90;45.20
30999;DHT22;20549;50.042;8.968;2023-06-04T00:50:41;15.80;45.20
30999;DHT22;20549;50.042;8.968;2023-06-04T00:53:08;15.80;45.30
30999;DHT22;20549;50.042;8.968;2023-06-04T00:55:34;15.80;45.40
30999;DHT22;20549;50.042;8.968;2023-06-04T00:58:01;15.70;45.50
30999;DHT22;20549;50.042;8.968;2023-06-04T01:00:27;15.70;45.70
30999;DHT22;20549;50.042;8.968;2023-06-04T01:02:54;15.60;45.60
30999;DHT22;20549;50.042;8.968;2023-06-04T01:05:29;15.60;45.80
30999;DHT22;20549;50.042;8.968;2023-06-04T01:07:53;15.50;45.70
30999;DHT22;20549;50.042;8.968;2023-06-04T01:10:19;15.50;45.80
30999;DHT22;20549;50.042;8.968;2023-06-04T01:12:46;15.50;45.90
30999;DHT22;20549;50.042;8.968;2023-06-04T01:15:13;15.40;45.90
30999;DHT22;20549;50.042;8.968;2023-06-04T01:17:40;15.40;46.00
30999;DHT22;20549;50.042;8.968;2023-06-04T01:20:40;15.40;46.00
30999;DHT22;20549;50.042;8.968;2023-06-04T01:25:48;15.30;46.00
30999;DHT22;20549;50.042;8.968;2023-06-04T01:28:15;15.30;46.10
30999;DHT22;20549;50.042;8.968;2023-06-04T01:30:42;15.20;46.20
30999;DHT22;20549;50.042;8.968;2023-06-04T01:33:10;15.20;46.30
30999;DHT22;20549;50.042;8.968;2023-06-04T01:35:37;15.20;46.40
30999;DHT22;20549;50.042;8.968;2023-06-04T01:38:03;15.20;46.50
30999;DHT22;20549;50.042;8.968;2023-06-04T01:40:30;15.20;46.60
30999;DHT22;20549;50.042;8.968;2023-06-04T01:42:57;15.10;46.50
30999;DHT22;20549;50.042;8.968;2023-06-04T01:45:23;15.10;46.60
30999;DHT22;20549;50.042;8.968;2023-06-04T01:47:49;15.10;46.70
30999;DHT22;20549;50.042;8.968;2023-06-04T01:50:16;15.00;46.70
30999;DHT22;20549;50.042;8.968;2023-06-04T01:52:43;15.00;46.80
30999;DHT22;20549;50.042;8.968;2023-06-04T01:55:10;15.00;46.90
30999;DHT22;20549;50.042;8.968;2023-06-04T01:57:36;14.90;47.50
30999;DHT22;20549;50.042;8.968;2023-06-04T02:00:03;14.80;47.00
30999;DHT22;20549;50.042;8.968;2023-06-04T02:02:29;14.70;47.00
30999;DHT22;20549;50.042;8.968;2023-06-04T02:04:56;14.70;47.10
30999;DHT22;20549;50.042;8.968;2023-06-04T02:07:22;14.70;47.20
30999;DHT22;20549;50.042;8.968;2023-06-04T02:09:49;14.60;47.40
30999;DHT22;20549;50.042;8.968;2023-06-04T02:12:15;14.60;47.40
30999;DHT22;20549;50.042;8.968;2023-06-04T02:14:42;14.50;47.50
30999;DHT22;20549;50.042;8.968;2023-06-04T02:17:08;14.50;47.60
30999;DHT22;20549;50.042;8.968;2023-06-04T02:19:35;14.40;47.60
30999;DHT22;20549;50.042;8.968;2023-06-04T02:22:02;14.40;47.80
30999;DHT22;20549;50.042;8.968;2023-06-04T02:24:28;14.30;47.90
30999;DHT22;20549;50.042;8.968;2023-06-04T02:26:55;14.30;47.90
30999;DHT22;20549;50.042;8.968;2023-06-04T02:29:21;14.20;48.00
30999;DHT22;20549;50.042;8.968;2023-06-04T02:31:48;14.20;48.10
30999;DHT22;20549;50.042;8.968;2023-06-04T02:34:15;14.20;48.30
30999;DHT22;20549;50.042;8.968;2023-06-04T02:36:41;14.10;48.30
30999;DHT22;20549;50.042;8.968;2023-06-04T02:39:08;14.10;48.40
30999;DHT22;20549;50.042;8.968;2023-06-04T02:41:34;14.10;48.40
30999;DHT22;20549;50.042;8.968;2023-06-04T02:44:01;14.00;48.40
30999;DHT22;20549;50.042;8.968;2023-06-04T02:46:27;14.00;48.50
30999;DHT22;20549;50.042;8.968;2023-06-04T02:48:54;14.00;48.70
30999;DHT22;20549;50.042;8.968;2023-06-04T02:51:21;14.00;48.80
30999;DHT22;20549;50.042;8.968;2023-06-04T02:53:47;14.00;48.80
30999;DHT22;20549;50.042;8.968;2023-06-04T02:56:14;14.00;48.90
30999;DHT22;20549;50.042;8.968;2023-06-04T02:58:50;13.90;48.90
30999;DHT22;20549;50.042;8.968;2023-06-04T03:01:23;13.90;48.90
30999;DHT22;20549;50.042;8.968;2023-06-04T03:03:49;13.90;49.00
30999;DHT22;20549;50.042;8.968;2023-06-04T03:06:15;13.90;49.10
30999;DHT22;20549;50.042;8.968;2023-06-04T03:08:42;13.80;49.20
30999;DHT22;20549;50.042;8.968;2023-06-04T03:11:08;13.80;49.30
30999;DHT22;20549;50.042;8.968;2023-06-04T03:13:35;13.70;49.40
30999;DHT22;20549;50.042;8.968;2023-06-04T03:16:02;13.70;49.50
30999;DHT22;20549;50.042;8.968;2023-06-04T03:18:28;13.70;49.60
30999;DHT22;20549;50.042;8.968;2023-06-04T03:20:54;13.70;49.70
30999;DHT22;20549;50.042;8.968;2023-06-04T03:23:21;13.60;49.80
30999;DHT22;20549;50.042;8.968;2023-06-04T03:25:48;13.60;50.00
30999;DHT22;20549;50.042;8.968;2023-06-04T03:28:14;13.50;50.10
30999;DHT22;20549;50.042;8.968;2023-06-04T03:30:41;13.50;50.30
30999;DHT22;20549;50.042;8.968;2023-06-04T03:33:07;13.40;50.30
30999;DHT22;20549;50.042;8.968;2023-06-04T03:35:34;13.40;50.40
30999;DHT22;20549;50.042;8.968;2023-06-04T03:38:01;13.40;50.60
30999;DHT22;20549;50.042;8.968;2023-06-04T03:40:27;13.30;50.60
30999;DHT22;20549;50.042;8.968;2023-06-04T03:42:54;13.30;50.10
30999;DHT22;20549;50.042;8.968;2023-06-04T03:45:20;13.20;50.80
30999;DHT22;20549;50.042;8.968;2023-06-04T03:47:47;13.20;51.10
30999;DHT22;20549;50.042;8.968;2023-06-04T03:50:13;13.20;51.20
30999;DHT22;20549;50.042;8.968;2023-06-04T03:52:40;13.20;51.30
30999;DHT22;20549;50.042;8.968;2023-06-04T03:55:07;13.10;51.30
30999;DHT22;20549;50.042;8.968;2023-06-04T03:57:33;13.10;51.40
30999;DHT22;20549;50.042;8.968;2023-06-04T04:00:00;13.10;51.60
30999;DHT22;20549;50.042;8.968;2023-06-04T04:02:26;13.10;51.70
30999;DHT22;20549;50.042;8.968;2023-06-04T04:04:53;13.10;51.90
30999;DHT22;20549;50.042;8.968;2023-06-04T04:07:20;13.10;51.90
30999;DHT22;20549;50.042;8.968;2023-06-04T04:09:46;13.10;52.00
30999;DHT22;20549;50.042;8.968;2023-06-04T04:12:13;13.10;52.10
30999;DHT22;20549;50.042;8.968;2023-06-04T04:14:39;13.20;52.20
30999;DHT22;20549;50.042;8.968;2023-06-04T04:17:06;13.20;52.20
30999;DHT22;20549;50.042;8.968;2023-06-04T04:19:32;13.20;52.30
30999;DHT22;20549;50.042;8.968;2023-06-04T04:21:59;13.20;52.30
30999;DHT22;20549;50.042;8.968;2023-06-04T04:24:26;13.30;52.40
30999;DHT22;20549;50.042;8.968;2023-06-04T04:26:53;13.40;52.60
30999;DHT22;20549;50.042;8.968;2023-06-04T04:29:22;13.40;52.60
30999;DHT22;20549;50.042;8.968;2023-06-04T04:31:51;13.50;52.70
30999;DHT22;20549;50.042;8.968;2023-06-04T04:34:17;13.50;53.10
30999;DHT22;20549;50.042;8.968;2023-06-04T04:36:44;13.60;52.70
30999;DHT22;20549;50.042;8.968;2023-06-04T04:39:10;13.70;52.70
30999;DHT22;20549;50.042;8.968;2023-06-04T04:41:37;13.70;52.70
30999;DHT22;20549;50.042;8.968;2023-06-04T04:44:04;13.90;52.60
30999;DHT22;20549;50.042;8.968;2023-06-04T04:46:30;13.90;52.50
30999;DHT22;20549;50.042;8.968;2023-06-04T04:48:57;14.00;52.50
30999;DHT22;20549;50.042;8.968;2023-06-04T04:51:23;14.10;52.60
30999;DHT22;20549;50.042;8.968;2023-06-04T04:53:50;14.30;52.60
30999;DHT22;20549;50.042;8.968;2023-06-04T04:56:16;14.40;52.60
30999;DHT22;20549;50.042;8.968;2023-06-04T04:58:43;14.70;53.00
30999;DHT22;20549;50.042;8.968;2023-06-04T05:01:10;15.00;53.50
30999;DHT22;20549;50.042;8.968;2023-06-04T05:03:36;15.60;54.00
30999;DHT22;20549;50.042;8.968;2023-06-04T05:06:03;16.20;54.20
30999;DHT22;20549;50.042;8.968;2023-06-04T05:08:29;16.90;54.10
30999;DHT22;20549;50.042;8.968;2023-06-04T05:10:56;17.70;53.80
30999;DHT22;20549;50.042;8.968;2023-06-04T05:13:23;18.60;53.30
30999;DHT22;20549;50.042;8.968;2023-06-04T05:15:49;19.40;52.50
30999;DHT22;20549;50.042;8.968;2023-06-04T05:18:16;20.30;51.70
30999;DHT22;20549;50.042;8.968;2023-06-04T05:20:42;21.10;50.70
30999;DHT22;20549;50.042;8.968;2023-06-04T05:23:09;22.00;49.80
30999;DHT22;20549;50.042;8.968;2023-06-04T05:25:36;22.80;49.00
30999;DHT22;20549;50.042;8.968;2023-06-04T05:28:02;23.60;48.00
30999;DHT22;20549;50.042;8.968;2023-06-04T05:30:29;24.40;47.00
30999;DHT22;20549;50.042;8.968;2023-06-04T05:32:55;25.20;46.30
30999;DHT22;20549;50.042;8.968;2023-06-04T05:35:22;25.90;45.10
30999;DHT22;20549;50.042;8.968;2023-06-04T05:37:48;26.60;44.30
30999;DHT22;20549;50.042;8.968;2023-06-04T05:40:15;27.20;43.30
30999;DHT22;20549;50.042;8.968;2023-06-04T05:42:42;27.80;42.60
30999;DHT22;20549;50.042;8.968;2023-06-04T05:45:08;28.40;41.90
30999;DHT22;20549;50.042;8.968;2023-06-04T05:47:35;28.80;40.90
30999;DHT22;20549;50.042;8.968;2023-06-04T05:50:01;29.30;40.10
30999;DHT22;20549;50.042;8.968;2023-06-04T05:52:28;29.60;39.30
30999;DHT22;20549;50.042;8.968;2023-06-04T05:54:55;30.00;38.80
30999;DHT22;20549;50.042;8.968;2023-06-04T05:57:21;30.30;38.30
30999;DHT22;20549;50.042;8.968;2023-06-04T05:59:48;30.60;38.00
30999;DHT22;20549;50.042;8.968;2023-06-04T06:02:14;30.90;37.60
30999;DHT22;20549;50.042;8.968;2023-06-04T06:04:41;31.30;37.80
30999;DHT22;20549;50.042;8.968;2023-06-04T06:07:08;31.70;36.70
30999;DHT22;20549;50.042;8.968;2023-06-04T06:09:34;32.10;36.30
30999;DHT22;20549;50.042;8.968;2023-06-04T06:12:01;32.50;35.80
30999;DHT22;20549;50.042;8.968;2023-06-04T06:14:27;32.90;35.40
30999;DHT22;20549;50.042;8.968;2023-06-04T06:16:54;33.20;34.80
30999;DHT22;20549;50.042;8.968;2023-06-04T06:19:21;33.60;34.50
30999;DHT22;20549;50.042;8.968;2023-06-04T06:21:47;34.00;34.20
30999;DHT22;20549;50.042;8.968;2023-06-04T06:24:14;34.30;33.80
30999;DHT22;20549;50.042;8.968;2023-06-04T06:26:40;34.70;33.50
30999;DHT22;20549;50.042;8.968;2023-06-04T06:29:07;35.00;32.90
30999;DHT22;20549;50.042;8.968;2023-06-04T06:31:33;35.30;32.50
30999;DHT22;20549;50.042;8.968;2023-06-04T06:34:00;35.50;32.20
30999;DHT22;20549;50.042;8.968;2023-06-04T06:36:27;35.90;32.00
30999;DHT22;20549;50.042;8.968;2023-06-04T06:38:53;36.20;31.50
30999;DHT22;20549;50.042;8.968;2023-06-04T06:41:20;36.50;31.00
30999;DHT22;20549;50.042;8.968;2023-06-04T06:43:46;36.80;30.80
30999;DHT22;20549;50.042;8.968;2023-06-04T06:46:13;37.00;30.50
30999;DHT22;20549;50.042;8.968;2023-06-04T06:48:40;37.30;30.30
30999;DHT22;20549;50.042;8.968;2023-06-04T06:51:06;37.60;30.10
30999;DHT22;20549;50.042;8.968;2023-06-04T06:53:33;37.90;29.80
30999;DHT22;20549;50.042;8.968;2023-06-04T06:55:59;38.10;29.40
30999;DHT22;20549;50.042;8.968;2023-06-04T06:58:26;38.30;29.10
30999;DHT22;20549;50.042;8.968;2023-06-04T07:00:53;38.50;28.70
30999;DHT22;20549;50.042;8.968;2023-06-04T07:03:19;38.70;28.40
30999;DHT22;20549;50.042;8.968;2023-06-04T07:05:46;38.80;28.30
30999;DHT22;20549;50.042;8.968;2023-06-04T07:08:12;39.10;28.20
30999;DHT22;20549;50.042;8.968;2023-06-04T07:10:39;39.20;27.90
30999;DHT22;20549;50.042;8.968;2023-06-04T07:13:05;39.50;27.80
30999;DHT22;20549;50.042;8.968;2023-06-04T07:15:32;39.70;27.70
30999;DHT22;20549;50.042;8.968;2023-06-04T07:17:59;39.90;27.50
30999;DHT22;20549;50.042;8.968;2023-06-04T07:20:25;40.30;27.30
30999;DHT22;20549;50.042;8.968;2023-06-04T07:22:52;40.60;27.00
30999;DHT22;20549;50.042;8.968;2023-06-04T07:25:19;40.90;26.80
30999;DHT22;20549;50.042;8.968;2023-06-04T07:27:45;41.10;26.60
30999;DHT22;20549;50.042;8.968;2023-06-04T07:30:12;41.30;26.40
30999;DHT22;20549;50.042;8.968;2023-06-04T07:32:38;41.50;26.30
30999;DHT22;20549;50.042;8.968;2023-06-04T07:35:05;41.70;26.20
30999;DHT22;20549;50.042;8.968;2023-06-04T07:37:31;41.90;26.40
30999;DHT22;20549;50.042;8.968;2023-06-04T07:39:58;42.20;25.70
30999;DHT22;20549;50.042;8.968;2023-06-04T07:42:25;42.30;25.50
30999;DHT22;20549;50.042;8.968;2023-06-04T07:44:51;42.50;25.30
30999;DHT22;20549;50.042;8.968;2023-06-04T07:47:18;42.60;25.10
30999;DHT22;20549;50.042;8.968;2023-06-04T07:49:44;42.70;24.80
30999;DHT22;20549;50.042;8.968;2023-06-04T07:52:11;42.80;24.30
30999;DHT22;20549;50.042;8.968;2023-06-04T07:54:37;42.90;25.00
30999;DHT22;20549;50.042;8.968;2023-06-04T07:57:04;43.00;24.60
30999;DHT22;20549;50.042;8.968;2023-06-04T07:59:31;43.00;24.20
30999;DHT22;20549;50.042;8.968;2023-06-04T08:01:57;43.20;23.90
30999;DHT22;20549;50.042;8.968;2023-06-04T08:04:24;43.30;24.10
30999;DHT22;20549;50.042;8.968;2023-06-04T08:06:51;43.40;24.10
30999;DHT22;20549;50.042;8.968;2023-06-04T08:09:17;43.50;24.00
30999;DHT22;20549;50.042;8.968;2023-06-04T08:11:44;43.70;23.70
30999;DHT22;20549;50.042;8.968;2023-06-04T08:14:10;43.80;23.40
30999;DHT22;20549;50.042;8.968;2023-06-04T08:16:37;43.90;23.30
30999;DHT22;20549;50.042;8.968;2023-06-04T08:19:03;44.10;23.30
30999;DHT22;20549;50.042;8.968;2023-06-04T08:21:30;44.30;23.00
30999;DHT22;20549;50.042;8.968;2023-06-04T08:23:57;44.40;22.90
30999;DHT22;20549;50.042;8.968;2023-06-04T08:26:23;44.50;22.70
30999;DHT22;20549;50.042;8.968;2023-06-04T08:28:50;44.60;22.60
30999;DHT22;20549;50.042;8.968;2023-06-04T08:31:16;44.70;22.60
30999;DHT22;20549;50.042;8.968;2023-06-04T08:33:46;44.70;22.50
30999;DHT22;20549;50.042;8.968;2023-06-04T08:36:12;44.90;22.30
30999;DHT22;20549;50.042;8.968;2023-06-04T08:38:39;45.00;22.20
30999;DHT22;20549;50.042;8.968;2023-06-04T08:41:24;45.20;22.10
30999;DHT22;20549;50.042;8.968;2023-06-04T08:43:50;45.20;22.00
30999;DHT22;20549;50.042;8.968;2023-06-04T08:46:17;45.40;22.10
30999;DHT22;20549;50.042;8.968;2023-06-04T08:48:44;45.50;22.10
30999;DHT22;20549;50.042;8.968;2023-06-04T08:51:11;45.70;22.10
30999;DHT22;20549;50.042;8.968;2023-06-04T08:53:38;45.90;21.90
30999;DHT22;20549;50.042;8.968;2023-06-04T08:56:04;46.10;21.60
30999;DHT22;20549;50.042;8.968;2023-06-04T08:58:31;46.40;21.60
30999;DHT22;20549;50.042;8.968;2023-06-04T09:00:57;46.70;21.60
30999;DHT22;20549;50.042;8.968;2023-06-04T09:03:24;46.90;21.20
30999;DHT22;20549;50.042;8.968;2023-06-04T09:05:51;47.00;21.00
30999;DHT22;20549;50.042;8.968;2023-06-04T09:08:17;47.00;20.90
30999;DHT22;20549;50.042;8.968;2023-06-04T09:10:44;47.10;20.80
30999;DHT22;20549;50.042;8.968;2023-06-04T09:13:10;47.20;20.70
30999;DHT22;20549;50.042;8.968;2023-06-04T09:15:37;47.30;20.70
30999;DHT22;20549;50.042;8.968;2023-06-04T09:18:04;47.40;20.50
30999;DHT22;20549;50.042;8.968;2023-06-04T09:20:30;47.50;20.20
30999;DHT22;20549;50.042;8.968;2023-06-04T09:22:57;47.60;19.90
30999;DHT22;20549;50.042;8.968;2023-06-04T09:25:24;47.60;19.70
30999;DHT22;20549;50.042;8.968;2023-06-04T09:27:50;47.40;19.50
30999;DHT22;20549;50.042;8.968;2023-06-04T09:30:17;47.20;19.40
30999;DHT22;20549;50.042;8.968;2023-06-04T09:32:43;46.90;19.40
30999;DHT22;20549;50.042;8.968;2023-06-04T09:35:13;46.50;19.20
30999;DHT22;20549;50.042;8.968;2023-06-04T09:37:39;46.20;19.30
30999;DHT22;20549;50.042;8.968;2023-06-04T09:40:06;45.80;19.30
30999;DHT22;20549;50.042;8.968;2023-06-04T09:42:42;45.40;19.10
30999;DHT22;20549;50.042;8.968;2023-06-04T09:45:08;45.10;19.20
30999;DHT22;20549;50.042;8.968;2023-06-04T09:47:41;44.80;19.40
30999;DHT22;20549;50.042;8.968;2023-06-04T09:50:07;44.50;19.40
30999;DHT22;20549;50.042;8.968;2023-06-04T09:52:34;44.10;19.40
30999;DHT22;20549;50.042;8.968;2023-06-04T09:55:00;43.80;19.30
30999;DHT22;20549;50.042;8.968;2023-06-04T09:57:28;43.40;19.00
30999;DHT22;20549;50.042;8.968;2023-06-04T09:59:54;42.90;19.00
30999;DHT22;20549;50.042;8.968;2023-06-04T10:02:20;42.40;19.20
30999;DHT22;20549;50.042;8.968;2023-06-04T10:04:53;41.80;19.20
30999;DHT22;20549;50.042;8.968;2023-06-04T10:07:19;41.20;19.30
30999;DHT22;20549;50.042;8.968;2023-06-04T10:09:46;40.60;19.50
30999;DHT22;20549;50.042;8.968;2023-06-04T10:12:15;39.90;19.60
30999;DHT22;20549;50.042;8.968;2023-06-04T10:14:47;39.40;19.80
30999;DHT22;20549;50.042;8.968;2023-06-04T10:17:11;38.70;19.90
30999;DHT22;20549;50.042;8.968;2023-06-04T10:19:38;38.20;20.00
30999;DHT22;20549;50.042;8.968;2023-06-04T10:22:04;37.70;20.10
30999;DHT22;20549;50.042;8.968;2023-06-04T10:24:31;37.20;20.40
30999;DHT22;20549;50.042;8.968;2023-06-04T10:26:58;36.70;20.40
30999;DHT22;20549;50.042;8.968;2023-06-04T10:29:25;36.20;20.40
30999;DHT22;20549;50.042;8.968;2023-06-04T10:31:57;35.60;20.40
30999;DHT22;20549;50.042;8.968;2023-06-04T10:34:20;35.10;20.60
30999;DHT22;20549;50.042;8.968;2023-06-04T10:36:46;34.60;20.80
30999;DHT22;20549;50.042;8.968;2023-06-04T10:39:13;34.20;21.00
30999;DHT22;20549;50.042;8.968;2023-06-04T10:41:40;33.70;21.20
30999;DHT22;20549;50.042;8.968;2023-06-04T10:44:06;33.30;21.80
30999;DHT22;20549;50.042;8.968;2023-06-04T10:46:39;33.00;21.90
30999;DHT22;20549;50.042;8.968;2023-06-04T10:49:05;32.70;21.90
30999;DHT22;20549;50.042;8.968;2023-06-04T10:51:33;32.40;21.80
30999;DHT22;20549;50.042;8.968;2023-06-04T10:53:59;32.10;21.90
30999;DHT22;20549;50.042;8.968;2023-06-04T10:56:28;31.80;22.00
30999;DHT22;20549;50.042;8.968;2023-06-04T10:58:55;31.50;22.10
30999;DHT22;20549;50.042;8.968;2023-06-04T11:01:27;31.20;22.30
30999;DHT22;20549;50.042;8.968;2023-06-04T11:03:54;30.80;22.40
30999;DHT22;20549;50.042;8.968;2023-06-04T11:06:21;30.50;22.70
30999;DHT22;20549;50.042;8.968;2023-06-04T11:08:47;30.30;22.70
30999;DHT22;20549;50.042;8.968;2023-06-04T11:11:16;30.10;22.80
30999;DHT22;20549;50.042;8.968;2023-06-04T11:13:43;29.90;22.90
30999;DHT22;20549;50.042;8.968;2023-06-04T11:16:20;29.80;23.20
30999;DHT22;20549;50.042;8.968;2023-06-04T11:18:57;29.70;23.40
30999;DHT22;20549;50.042;8.968;2023-06-04T11:21:24;29.60;23.50
30999;DHT22;20549;50.042;8.968;2023-06-04T11:23:59;29.60;23.50
30999;DHT22;20549;50.042;8.968;2023-06-04T11:26:35;29.50;23.60
30999;DHT22;20549;50.042;8.968;2023-06-04T11:29:02;29.50;23.60
30999;DHT22;20549;50.042;8.968;2023-06-04T11:31:28;29.40;23.60
30999;DHT22;20549;50.042;8.968;2023-06-04T11:33:54;29.30;23.60
30999;DHT22;20549;50.042;8.968;2023-06-04T11:36:27;29.20;23.50
30999;DHT22;20549;50.042;8.968;2023-06-04T11:38:56;29.10;23.40
30999;DHT22;20549;50.042;8.968;2023-06-04T11:41:23;29.00;23.60
30999;DHT22;20549;50.042;8.968;2023-06-04T11:43:49;28.90;23.90
30999;DHT22;20549;50.042;8.968;2023-06-04T11:46:16;28.90;24.00
30999;DHT22;20549;50.042;8.968;2023-06-04T11:48:42;28.90;24.20
30999;DHT22;20549;50.042;8.968;2023-06-04T11:51:09;28.90;24.30
30999;DHT22;20549;50.042;8.968;2023-06-04T11:53:36;28.90;24.30
30999;DHT22;20549;50.042;8.968;2023-06-04T11:56:02;28.90;24.30
30999;DHT22;20549;50.042;8.968;2023-06-04T11:58:29;28.80;24.30
30999;DHT22;20549;50.042;8.968;2023-06-04T12:00:55;28.80;24.40
30999;DHT22;20549;50.042;8.968;2023-06-04T12:03:33;28.70;24.50
30999;DHT22;20549;50.042;8.968;2023-06-04T12:05:48;28.70;24.70
30999;DHT22;20549;50.042;8.968;2023-06-04T12:08:15;28.70;24.80
30999;DHT22;20549;50.042;8.968;2023-06-04T12:10:42;28.70;24.70
30999;DHT22;20549;50.042;8.968;2023-06-04T12:13:08;28.70;24.90
30999;DHT22;20549;50.042;8.968;2023-06-04T12:15:35;28.70;25.10
30999;DHT22;20549;50.042;8.968;2023-06-04T12:18:01;28.70;25.00
30999;DHT22;20549;50.042;8.968;2023-06-04T12:20:34;28.60;24.90
30999;DHT22;20549;50.042;8.968;2023-06-04T12:23:00;28.60;25.00
30999;DHT22;20549;50.042;8.968;2023-06-04T12:25:27;28.60;24.90
30999;DHT22;20549;50.042;8.968;2023-06-04T12:27:53;28.60;24.90
30999;DHT22;20549;50.042;8.968;2023-06-04T12:30:20;28.50;24.90
30999;DHT22;20549;50.042;8.968;2023-06-04T12:32:47;28.50;25.40
30999;DHT22;20549;50.042;8.968;2023-06-04T12:35:13;28.50;25.10
30999;DHT22;20549;50.042;8.968;2023-06-04T12:37:39;28.40;25.00
30999;DHT22;20549;50.042;8.968;2023-06-04T12:40:06;28.40;25.10
30999;DHT22;20549;50.042;8.968;2023-06-04T12:42:33;28.40;25.00
30999;DHT22;20549;50.042;8.968;2023-06-04T12:44:59;28.40;25.10
30999;DHT22;20549;50.042;8.968;2023-06-04T12:47:26;28.30;24.90
30999;DHT22;20549;50.042;8.968;2023-06-04T12:49:53;28.30;24.90
30999;DHT22;20549;50.042;8.968;2023-06-04T12:52:19;28.30;24.90
30999;DHT22;20549;50.042;8.968;2023-06-04T12:54:47;28.20;24.90
30999;DHT22;20549;50.042;8.968;2023-06-04T12:57:12;28.10;25.00
30999;DHT22;20549;50.042;8.968;2023-06-04T12:59:39;28.10;25.10
30999;DHT22;20549;50.042;8.968;2023-06-04T13:02:05;28.10;25.00
30999;DHT22;20549;50.042;8.968;2023-06-04T13:04:32;28.10;25.20
30999;DHT22;20549;50.042;8.968;2023-06-04T13:06:59;28.10;25.10
30999;DHT22;20549;50.042;8.968;2023-06-04T13:09:25;28.10;24.90
30999;DHT22;20549;50.042;8.968;2023-06-04T13:11:52;28.00;24.80
30999;DHT22;20549;50.042;8.968;2023-06-04T13:14:18;28.00;24.90
30999;DHT22;20549;50.042;8.968;2023-06-04T13:16:45;28.00;24.90
30999;DHT22;20549;50.042;8.968;2023-06-04T13:19:12;28.00;25.00
30999;DHT22;20549;50.042;8.968;2023-06-04T13:21:38;28.00;25.00
30999;DHT22;20549;50.042;8.968;2023-06-04T13:24:05;28.00;25.10
30999;DHT22;20549;50.042;8.968;2023-06-04T13:26:31;28.00;25.00
30999;DHT22;20549;50.042;8.968;2023-06-04T13:28:58;27.90;25.10
30999;DHT22;20549;50.042;8.968;2023-06-04T13:31:25;27.90;25.10
30999;DHT22;20549;50.042;8.968;2023-06-04T13:33:51;27.90;25.10
30999;DHT22;20549;50.042;8.968;2023-06-04T13:36:18;27.90;25.20
30999;DHT22;20549;50.042;8.968;2023-06-04T13:38:44;27.90;25.50
30999;DHT22;20549;50.042;8.968;2023-06-04T13:41:11;27.90;25.50
30999;DHT22;20549;50.042;8.968;2023-06-04T13:43:37;27.90;25.50
30999;DHT22;20549;50.042;8.968;2023-06-04T13:46:04;27.90;25.60
30999;DHT22;20549;50.042;8.968;2023-06-04T13:48:31;28.00;25.90
30999;DHT22;20549;50.042;8.968;2023-06-04T13:50:57;28.00;25.80
30999;DHT22;20549;50.042;8.968;2023-06-04T13:53:24;28.00;25.90
30999;DHT22;20549;50.042;8.968;2023-06-04T13:55:50;28.00;25.90
30999;DHT22;20549;50.042;8.968;2023-06-04T13:58:17;28.00;25.90
30999;DHT22;20549;50.042;8.968;2023-06-04T14:00:44;28.00;25.80
30999;DHT22;20549;50.042;8.968;2023-06-04T14:03:10;28.00;25.30
30999;DHT22;20549;50.042;8.968;2023-06-04T14:05:37;28.00;25.80
30999;DHT22;20549;50.042;8.968;2023-06-04T14:08:03;28.00;25.70
30999;DHT22;20549;50.042;8.968;2023-06-04T14:10:30;28.10;25.70
30999;DHT22;20549;50.042;8.968;2023-06-04T14:12:57;28.10;25.70
30999;DHT22;20549;50.042;8.968;2023-06-04T14:15:23;28.10;25.80
30999;DHT22;20549;50.042;8.968;2023-06-04T14:17:50;28.10;25.70
30999;DHT22;20549;50.042;8.968;2023-06-04T14:20:16;28.10;25.70
30999;DHT22;20549;50.042;8.968;2023-06-04T14:22:43;28.10;25.80
30999;DHT22;20549;50.042;8.968;2023-06-04T14:25:10;28.10;25.80
30999;DHT22;20549;50.042;8.968;2023-06-04T14:27:36;28.10;25.70
30999;DHT22;20549;50.042;8.968;2023-06-04T14:30:03;28.10;25.70
30999;DHT22;20549;50.042;8.968;2023-06-04T14:32:29;28.10;25.70
30999;DHT22;20549;50.042;8.968;2023-06-04T14:34:56;28.10;25.80
30999;DHT22;20549;50.042;8.968;2023-06-04T14:37:22;28.10;25.70
30999;DHT22;20549;50.042;8.968;2023-06-04T14:39:49;28.10;25.80
30999;DHT22;20549;50.042;8.968;2023-06-04T14:42:16;28.10;26.00
30999;DHT22;20549;50.042;8.968;2023-06-04T14:44:42;28.20;25.90
30999;DHT22;20549;50.042;8.968;2023-06-04T14:47:09;28.20;25.90
30999;DHT22;20549;50.042;8.968;2023-06-04T14:49:35;28.20;26.00
30999;DHT22;20549;50.042;8.968;2023-06-04T14:52:02;28.20;26.10
30999;DHT22;20549;50.042;8.968;2023-06-04T14:54:29;28.20;26.10
30999;DHT22;20549;50.042;8.968;2023-06-04T14:56:55;28.20;26.10
30999;DHT22;20549;50.042;8.968;2023-06-04T14:59:22;28.20;26.10
30999;DHT22;20549;50.042;8.968;2023-06-04T15:01:48;28.20;26.20
30999;DHT22;20549;50.042;8.968;2023-06-04T15:04:15;28.20;26.20
30999;DHT22;20549;50.042;8.968;2023-06-04T15:06:41;28.20;26.30
30999;DHT22;20549;50.042;8.968;2023-06-04T15:09:08;28.20;26.30
30999;DHT22;20549;50.042;8.968;2023-06-04T15:11:35;28.30;26.40
30999;DHT22;20549;50.042;8.968;2023-06-04T15:14:01;28.20;26.20
30999;DHT22;20549;50.042;8.968;2023-06-04T15:16:28;28.20;26.30
30999;DHT22;20549;50.042;8.968;2023-06-04T15:18:54;28.20;26.40
30999;DHT22;20549;50.042;8.968;2023-06-04T15:21:21;28.20;26.50
30999;DHT22;20549;50.042;8.968;2023-06-04T15:23:48;28.20;26.60
30999;DHT22;20549;50.042;8.968;2023-06-04T15:26:15;28.10;26.50
30999;DHT22;20549;50.042;8.968;2023-06-04T15:28:41;28.20;26.30
30999;DHT22;20549;50.042;8.968;2023-06-04T15:31:07;28.20;26.60